首页
METAR-TAF:

METAR-TAF

机场 :

博蒙特, 得克萨斯州, 美国

纬度: 30-04-13N, 经度: 094-12-54W, 海拔: 10米

当前天气观测

该预报发布于28分钟前的03:55 UTC
静风
温度 18°C
湿度 100%
气压 1016 hPa
能見度: 4.0公里
阴天层高于400英尺
小毛毛雨

METAR: KBMT 230355Z AUTO 00000KT 2 1/2SM -DZ OVC004 18/18 A3000 RMK AO2 T01830178

时间: 21:23 (04:23 UTC)


TAF: 丢失

超过4000个机场的气象观测和天气预报(METAR&TAF报告)。

可查询的气象台以黄色和红色小点在地图上表示。

将鼠标移到小点上方,可查看气象台名称。

然后点击查看天气观测和预报。

如需切换地图:点击带黑十字的绿色按钮放大地图;点击带横线的绿色按钮缩小地图;或者点击绿色箭头查看邻近地区的地图。


METAR-TAF: